Time;durP1;ratioP1;P1;durP2;ratioP2;P2;SDS_P1;SDS_P2;PMS_P1;PMS_P2;Temp;Humidity;BMP_temperature;BMP_pressure;BME280_temperature;BME280_humidity;BME280_pressure;Samples;Min_cycle;Max_cycle;Signal;HPM_P1;HPM_P2
2024/03/26 00:00:13;;;;;;;33.40;11.80;;;;;;;6.26;100.00;99353.86;106176;1258;61442;-80
2024/03/26 00:02:41;;;;;;;27.20;10.70;;;;;;;6.27;100.00;99355.81;105990;1260;74982;-81
2024/03/26 00:05:09;;;;;;;24.80;10.00;;;;;;;6.29;100.00;99357.81;105904;1257;68558;-81
2024/03/26 00:07:36;;;;;;;26.20;10.00;;;;;;;6.28;100.00;99359.55;105989;1254;71501;-80
2024/03/26 00:10:05;;;;;;;26.10;10.80;;;;;;;6.30;100.00;99363.01;106053;1253;61695;-75
2024/03/26 00:12:33;;;;;;;28.00;12.60;;;;;;;6.30;100.00;99359.77;105803;1254;61243;-75
2024/03/26 00:15:00;;;;;;;29.40;12.00;;;;;;;6.27;100.00;99357.60;105778;1258;73669;-81
2024/03/26 00:17:28;;;;;;;24.50;10.50;;;;;;;6.27;100.00;99359.33;105890;1254;67113;-80
2024/03/26 00:19:55;;;;;;;23.70;9.40;;;;;;;6.26;100.00;99365.09;106410;1253;71379;-81
2024/03/26 00:22:23;;;;;;;25.10;11.40;;;;;;;6.29;100.00;99367.96;106155;1253;61661;-81
2024/03/26 00:24:50;;;;;;;30.80;11.50;;;;;;;6.31;100.00;99370.28;105869;1258;61359;-75
2024/03/26 00:27:17;;;;;;;26.40;11.60;;;;;;;6.29;100.00;99376.48;105762;1253;73358;-81
2024/03/26 00:29:45;;;;;;;24.30;11.50;;;;;;;6.30;100.00;99384.66;105937;1257;67017;-80
2024/03/26 00:32:12;;;;;;;25.60;10.40;;;;;;;6.30;100.00;99382.77;105914;1254;73275;-76
2024/03/26 00:34:40;;;;;;;23.90;10.80;;;;;;;6.29;100.00;99385.76;105957;1254;61656;-80
2024/03/26 00:37:08;;;;;;;30.90;11.20;;;;;;;6.31;100.00;99386.28;106118;1254;61256;-82
2024/03/26 00:39:35;;;;;;;25.90;10.90;;;;;;;6.34;100.00;99388.34;106733;1254;74642;-75
2024/03/26 00:42:03;;;;;;;27.90;10.10;;;;;;;6.30;100.00;99392.92;105926;1258;67575;-75
2024/03/26 00:44:30;;;;;;;27.50;10.60;;;;;;;6.29;100.00;99393.36;105876;1259;71415;-80
2024/03/26 00:46:58;;;;;;;26.00;11.60;;;;;;;6.30;100.00;99392.53;105985;1253;63288;-75
2024/03/26 00:49:25;;;;;;;26.20;11.00;;;;;;;6.31;100.00;99387.92;105913;1256;61344;-76
2024/03/26 00:51:52;;;;;;;29.30;10.60;;;;;;;6.32;100.00;99383.02;105796;1258;74580;-81
2024/03/26 00:54:20;;;;;;;35.60;12.70;;;;;;;6.32;100.00;99384.16;105913;1253;68691;-81
2024/03/26 00:56:50;;;;;;;30.60;12.80;;;;;;;6.33;100.00;99388.34;105932;1254;72740;-81
2024/03/26 00:59:18;;;;;;;29.70;11.70;;;;;;;6.33;100.00;99393.28;105790;1254;61577;-81
2024/03/26 01:01:46;;;;;;;32.70;11.30;;;;;;;6.33;100.00;99398.71;106731;1253;61187;-75
2024/03/26 06:40:47;;;;;;;34.90;14.10;;;;;;;6.41;100.00;99797.77;106081;1253;61692;-82
2024/03/26 06:43:15;;;;;;;35.10;15.00;;;;;;;6.44;100.00;99807.70;106403;1254;61161;-82
2024/03/26 06:45:43;;;;;;;30.00;11.80;;;;;;;6.49;100.00;99815.42;106055;1254;75959;-81
2024/03/26 06:48:10;;;;;;;34.60;15.30;;;;;;;6.48;100.00;99817.86;106064;1259;71014;-82
2024/03/26 06:50:38;;;;;;;32.80;13.10;;;;;;;6.68;100.00;99820.39;105969;1254;72649;-81
2024/03/26 06:53:07;;;;;;;29.00;11.80;;;;;;;6.77;100.00;99823.13;105872;1254;61700;-81
2024/03/26 06:55:34;;;;;;;28.40;11.90;;;;;;;6.77;100.00;99825.04;105852;1252;61307;-81
2024/03/26 06:58:02;;;;;;;28.00;11.90;;;;;;;6.81;100.00;99829.11;107214;1251;76772;-77
2024/03/26 07:00:30;;;;;;;32.90;14.10;;;;;;;6.74;100.00;99831.33;106006;1258;71184;-81
2024/03/26 07:02:58;;;;;;;34.70;14.10;;;;;;;6.68;100.00;99833.92;106126;1257;73521;-82
2024/03/26 07:05:25;;;;;;;33.80;15.10;;;;;;;6.75;100.00;99835.09;106066;1251;61785;-81
2024/03/26 07:07:53;;;;;;;30.50;12.50;;;;;;;6.77;100.00;99839.38;106005;1251;61396;-82
2024/03/26 07:10:21;;;;;;;34.00;14.20;;;;;;;6.88;100.00;99845.15;105972;1256;75407;-82
2024/03/26 07:12:48;;;;;;;28.50;11.70;;;;;;;6.87;100.00;99850.96;106258;1257;71208;-81
2024/03/26 07:15:16;;;;;;;28.60;13.50;;;;;;;6.83;100.00;99853.99;106413;1257;75078;-81
2024/03/26 07:17:44;;;;;;;28.50;11.70;;;;;;;6.82;100.00;99853.60;106184;1257;63920;-82
2024/03/26 07:20:12;;;;;;;25.50;12.10;;;;;;;6.84;100.00;99857.15;105951;1258;61297;-82
2024/03/26 07:22:39;;;;;;;25.10;11.00;;;;;;;6.86;100.00;99859.92;105977;1257;75767;-82
2024/03/26 07:25:07;;;;;;;27.70;12.40;;;;;;;6.83;100.00;99862.57;106238;1257;71166;-82
2024/03/26 07:27:35;;;;;;;29.10;14.40;;;;;;;6.81;100.00;99862.57;106001;1257;72723;-82
2024/03/26 07:30:08;;;;;;;32.40;14.50;;;;;;;6.83;100.00;99867.85;106569;1254;64242;-82
2024/03/26 07:32:36;;;;;;;23.90;11.10;;;;;;;6.88;100.00;99873.02;106093;1257;62198;-82
2024/03/26 07:35:04;;;;;;;30.10;14.80;;;;;;;6.93;100.00;99876.11;106114;1251;74386;-81
2024/03/26 07:37:31;;;;;;;28.40;14.90;;;;;;;6.94;100.00;99877.64;106211;1256;69055;-82
2024/03/26 07:40:00;;;;;;;24.60;10.40;;;;;;;6.94;100.00;99878.95;106073;1254;74771;-81
2024/03/26 07:42:28;;;;;;;22.70;11.30;;;;;;;6.99;100.00;99881.89;105857;1259;62338;-82
2024/03/26 07:44:55;;;;;;;26.60;12.60;;;;;;;6.89;100.00;99884.70;106582;1254;61282;-82
2024/03/26 07:47:23;;;;;;;21.10;10.40;;;;;;;6.90;100.00;99887.85;106030;1254;77196;-81
2024/03/26 07:49:51;;;;;;;23.40;10.90;;;;;;;6.98;100.00;99892.48;106096;1259;70245;-81
2024/03/26 07:52:18;;;;;;;17.10;9.00;;;;;;;6.98;100.00;99893.98;106243;1254;72663;-81
2024/03/26 07:54:46;;;;;;;21.90;11.20;;;;;;;7.01;100.00;99897.92;106178;1257;62808;-77
2024/03/26 07:57:14;;;;;;;18.10;8.50;;;;;;;7.01;100.00;99899.27;106161;1256;61222;-81
2024/03/26 07:59:41;;;;;;;16.90;7.60;;;;;;;6.96;100.00;99899.87;106190;1258;76572;-77
2024/03/26 08:02:11;;;;;;;17.80;8.80;;;;;;;7.00;100.00;99898.56;106055;1257;70865;-82
2024/03/26 08:04:41;;;;;;;18.90;9.30;;;;;;;6.98;100.00;99901.49;105971;1255;74714;-78
2024/03/26 08:07:09;;;;;;;19.80;8.40;;;;;;;7.03;100.00;99901.95;106650;1250;62548;-77
2024/03/26 08:09:38;;;;;;;21.00;8.40;;;;;;;7.04;100.00;99909.66;106531;1256;61231;-78
2024/03/26 08:12:06;;;;;;;18.70;6.80;;;;;;;7.04;100.00;99906.73;106476;1259;74939;-77
2024/03/26 08:14:33;;;;;;;14.40;7.10;;;;;;;7.06;100.00;99911.89;106652;1257;70789;-77
2024/03/26 08:17:01;;;;;;;17.80;7.40;;;;;;;7.04;100.00;99911.13;106622;1257;72691;-78
2024/03/26 08:19:29;;;;;;;17.30;7.50;;;;;;;6.99;100.00;99911.82;106500;1256;63978;-77
2024/03/26 08:21:58;;;;;;;17.40;7.70;;;;;;;6.97;100.00;99919.64;107139;1256;61544;-77
2024/03/26 08:24:26;;;;;;;18.00;7.50;;;;;;;6.98;100.00;99926.05;106488;1251;75879;-82
2024/03/26 08:26:53;;;;;;;16.30;8.20;;;;;;;7.01;100.00;99931.71;106641;1256;69870;-77
2024/03/26 08:29:21;;;;;;;21.90;8.50;;;;;;;7.03;100.00;99935.36;106662;1253;72351;-82
2024/03/26 08:31:49;;;;;;;58.50;20.80;;;;;;;7.05;100.00;99940.31;106493;1255;63852;-81
2024/03/26 08:34:17;;;;;;;37.40;12.60;;;;;;;7.08;100.00;99944.21;106427;1254;62260;-77
2024/03/26 08:36:45;;;;;;;24.70;9.90;;;;;;;7.12;100.00;99946.35;106721;1256;74824;-80
2024/03/26 08:39:13;;;;;;;25.40;10.10;;;;;;;7.09;100.00;99951.46;106573;1256;70211;-79
2024/03/26 08:41:41;;;;;;;21.30;9.90;;;;;;;7.07;100.00;99954.44;106405;1253;74319;-81
2024/03/26 08:44:09;;;;;;;29.90;11.70;;;;;;;7.14;100.00;99960.21;106262;1254;62471;-77
2024/03/26 08:46:36;;;;;;;19.50;7.60;;;;;;;7.12;100.00;99961.95;106656;1252;61123;-82
2024/03/26 08:49:04;;;;;;;20.30;8.00;;;;;;;7.10;100.00;99962.32;106802;1251;74390;-81
2024/03/26 08:51:32;;;;;;;20.50;8.40;;;;;;;7.13;100.00;99963.52;106595;1257;70001;-78
2024/03/26 08:53:59;;;;;;;14.80;6.80;;;;;;;7.05;100.00;99964.98;106650;1257;74098;-77
2024/03/26 08:56:27;;;;;;;19.70;7.60;;;;;;;7.07;100.00;99966.07;106544;1266;62799;-81
2024/03/26 08:58:55;;;;;;;25.30;10.20;;;;;;;7.13;100.00;99970.05;106665;1251;61266;-81
2024/03/26 09:01:22;;;;;;;27.90;10.10;;;;;;;7.15;100.00;99973.10;106548;1257;76726;-77
2024/03/26 09:03:50;;;;;;;26.30;8.30;;;;;;;7.16;100.00;99973.91;106544;1257;70668;-81
2024/03/26 09:06:18;;;;;;;20.90;9.10;;;;;;;7.21;100.00;99976.31;106466;1258;73819;-80
2024/03/26 09:08:46;;;;;;;23.60;10.20;;;;;;;7.24;100.00;99976.91;106725;1257;63115;-78
2024/03/26 09:11:13;;;;;;;19.80;10.10;;;;;;;7.32;100.00;99978.19;106396;1259;62706;-81
2024/03/26 09:13:41;;;;;;;18.80;8.80;;;;;;;7.42;100.00;99981.63;106531;1251;75039;-77
2024/03/26 09:16:09;;;;;;;21.10;9.70;;;;;;;7.52;100.00;99983.48;106403;1259;69689;-78
2024/03/26 09:18:37;;;;;;;19.00;8.70;;;;;;;7.49;100.00;99983.37;106499;1251;74918;-81
2024/03/26 09:21:04;;;;;;;16.50;7.60;;;;;;;7.57;100.00;99980.93;106588;1254;64016;-81
2024/03/26 09:23:32;;;;;;;19.40;8.50;;;;;;;7.64;100.00;99985.18;106807;1258;63559;-81
2024/03/26 09:26:00;;;;;;;19.20;8.40;;;;;;;7.65;100.00;99989.53;106445;1257;76347;-78
2024/03/26 09:28:28;;;;;;;17.00;8.50;;;;;;;7.65;100.00;99990.77;106393;1259;70129;-81
2024/03/26 09:30:56;;;;;;;19.70;8.30;;;;;;;7.61;100.00;99991.55;106519;1254;74987;-77
2024/03/26 09:33:23;;;;;;;24.70;9.30;;;;;;;7.64;100.00;99994.70;107213;1256;62556;-77
2024/03/26 09:35:52;;;;;;;22.40;10.60;;;;;;;7.64;100.00;99990.62;107264;1254;61368;-81
2024/03/26 09:38:20;;;;;;;20.50;9.20;;;;;;;7.67;100.00;99992.96;106790;1252;77395;-79
2024/03/26 09:41:03;;;;;;;20.80;7.90;;;;;;;7.64;100.00;99992.41;106611;1254;70472;-81
2024/03/26 09:43:31;;;;;;;19.00;8.70;;;;;;;7.66;100.00;99998.13;105902;1255;73833;-81
2024/03/26 09:45:58;;;;;;;15.60;8.30;;;;;;;7.67;100.00;99993.62;106133;1258;64002;-82
2024/03/26 09:48:29;;;;;;;20.20;9.40;;;;;;;7.71;100.00;99989.64;106130;1267;61241;-80
2024/03/26 09:50:58;;;;;;;18.40;7.90;;;;;;;7.79;100.00;99991.94;105987;1251;75552;-77
2024/03/26 09:53:28;;;;;;;23.70;10.50;;;;;;;7.85;100.00;99992.31;106117;1254;70863;-80
2024/03/26 09:55:56;;;;;;;21.90;10.30;;;;;;;7.93;100.00;99999.10;105965;1257;73638;-77
2024/03/26 09:58:23;;;;;;;21.40;9.90;;;;;;;7.97;100.00;100002.71;106120;1257;64050;-78
2024/03/26 10:00:51;;;;;;;21.00;9.40;;;;;;;8.02;100.00;100001.66;106200;1256;61257;-77
2024/03/26 10:03:19;;;;;;;22.20;10.80;;;;;;;8.04;100.00;100004.66;106187;1252;75629;-77
2024/03/26 10:05:47;;;;;;;19.90;9.60;;;;;;;8.10;100.00;100004.59;106076;1258;70063;-76
2024/03/26 10:08:15;;;;;;;23.20;8.80;;;;;;;8.14;100.00;100013.20;106024;1254;73787;-76
2024/03/26 10:10:42;;;;;;;24.50;9.90;;;;;;;8.22;100.00;100010.08;106105;1267;64006;-80
2024/03/26 10:13:11;;;;;;;21.40;9.90;;;;;;;8.30;100.00;100017.97;106445;1257;61975;-80
2024/03/26 10:15:39;;;;;;;26.00;10.10;;;;;;;8.34;100.00;100021.23;106061;1251;75757;-81
2024/03/26 10:18:06;;;;;;;21.50;9.10;;;;;;;8.37;100.00;100021.06;106173;1258;71177;-76
2024/03/26 10:20:34;;;;;;;21.00;9.90;;;;;;;8.40;100.00;100021.55;106004;1254;74117;-76
2024/03/26 10:23:06;;;;;;;28.60;11.10;;;;;;;8.40;100.00;100026.73;105957;1255;62219;-76
2024/03/26 10:25:34;;;;;;;23.00;10.50;;;;;;;8.41;100.00;100029.24;105945;1260;61333;-76
2024/03/26 10:28:02;;;;;;;23.20;10.20;;;;;;;8.39;100.00;100032.67;106116;1251;75773;-76
2024/03/26 10:30:29;;;;;;;22.60;10.40;;;;;;;8.39;100.00;100033.76;106151;1256;71165;-81
2024/03/26 10:32:58;;;;;;;22.00;11.10;;;;;;;8.43;100.00;100035.29;106120;1255;74962;-80
2024/03/26 10:35:27;;;;;;;23.10;11.00;;;;;;;8.44;100.00;100037.41;106190;1257;62411;-81
2024/03/26 10:37:57;;;;;;;27.90;11.30;;;;;;;8.46;100.00;100040.80;106078;1256;61183;-79
2024/03/26 10:40:39;;;;;;;22.90;11.20;;;;;;;8.42;100.00;100046.19;105952;1254;76727;-80
2024/03/26 10:43:07;;;;;;;23.50;10.80;;;;;;;8.43;100.00;100045.42;106083;1257;71017;-81
2024/03/26 10:45:34;;;;;;;21.40;11.30;;;;;;;8.45;100.00;100048.08;105987;1254;73721;-77
2024/03/26 10:48:22;;;;;;;21.70;11.00;;;;;;;8.48;100.00;100047.47;105911;1260;62580;-77
2024/03/26 10:50:52;;;;;;;23.90;11.30;;;;;;;8.56;100.00;100047.95;106050;1252;62399;-77
2024/03/26 10:53:22;;;;;;;25.40;12.80;;;;;;;8.63;100.00;100049.19;105863;1260;76863;-81
2024/03/26 10:55:49;;;;;;;25.50;12.70;;;;;;;8.68;100.00;100044.98;106130;1257;71916;-80
2024/03/26 10:58:17;;;;;;;28.50;13.70;;;;;;;8.70;100.00;100049.27;106148;1257;73781;-80
2024/03/26 11:00:45;;;;;;;24.20;11.50;;;;;;;8.77;100.00;100049.30;106038;1255;64109;-80
2024/03/26 11:03:14;;;;;;;27.10;12.70;;;;;;;8.87;100.00;100051.19;106115;1257;62352;-77
2024/03/26 11:05:41;;;;;;;27.90;12.20;;;;;;;8.93;100.00;100052.04;106053;1251;77961;-81
2024/03/26 11:08:18;;;;;;;26.50;12.90;;;;;;;8.91;100.00;100057.28;106038;1251;71124;-76
2024/03/26 11:11:00;;;;;;;26.60;11.70;;;;;;;8.96;100.00;100055.68;106103;1257;73757;-77
2024/03/26 11:13:28;;;;;;;24.70;11.70;;;;;;;8.96;100.00;100060.43;106123;1254;63576;-80
2024/03/26 11:15:56;;;;;;;25.40;13.00;;;;;;;8.95;100.00;100065.55;106263;1251;61362;-76
2024/03/26 11:18:28;;;;;;;30.60;13.90;;;;;;;8.95;100.00;100067.90;105921;1254;76052;-80
2024/03/26 11:21:03;;;;;;;24.50;12.60;;;;;;;8.94;100.00;100066.27;106091;1257;71190;-77
2024/03/26 11:23:32;;;;;;;24.70;11.70;;;;;;;8.95;100.00;100071.10;106497;1254;73945;-81
2024/03/26 11:25:59;;;;;;;24.20;11.80;;;;;;;8.92;100.00;100070.91;106561;1251;64087;-81
2024/03/26 11:28:27;;;;;;;27.20;11.00;;;;;;;8.88;100.00;100073.53;106469;1256;62592;-78
2024/03/26 11:30:55;;;;;;;26.60;12.20;;;;;;;8.86;100.00;100075.21;106580;1254;77675;-82
2024/03/26 11:33:27;;;;;;;25.60;12.00;;;;;;;8.78;100.00;100080.37;106071;1257;70469;-77
2024/03/26 11:35:55;;;;;;;32.00;15.40;;;;;;;8.71;100.00;100079.63;106226;1254;74966;-77
2024/03/26 11:38:22;;;;;;;23.30;12.00;;;;;;;8.64;100.00;100078.28;106220;1258;62881;-81
2024/03/26 11:40:53;;;;;;;21.80;11.40;;;;;;;8.58;100.00;100081.17;106060;1251;61384;-81
2024/03/26 11:43:21;;;;;;;34.30;13.90;;;;;;;8.56;100.00;100084.88;106420;1251;75674;-80
2024/03/26 11:45:49;;;;;;;24.50;13.00;;;;;;;8.55;100.00;100089.83;106002;1254;69572;-77
2024/03/26 11:48:16;;;;;;;30.90;17.00;;;;;;;8.53;100.00;100089.52;105942;1254;73689;-81
2024/03/26 11:50:46;;;;;;;31.00;16.10;;;;;;;8.51;100.00;100095.13;105874;1254;62306;-81
2024/03/26 11:53:14;;;;;;;35.30;17.80;;;;;;;8.50;100.00;100096.15;106040;1252;62151;-81
2024/03/26 11:55:41;;;;;;;33.50;16.50;;;;;;;8.46;100.00;100097.46;105993;1251;76401;-77
2024/03/26 11:58:09;;;;;;;35.70;15.20;;;;;;;8.41;100.00;100101.99;106055;1251;70798;-80
2024/03/26 12:00:38;;;;;;;31.00;15.00;;;;;;;8.40;100.00;100107.42;106007;1257;75433;-76
2024/03/26 12:03:09;;;;;;;31.40;14.50;;;;;;;8.39;100.00;100111.39;105945;1258;63923;-80
2024/03/26 12:05:37;;;;;;;29.50;12.90;;;;;;;8.33;100.00;100112.10;106052;1251;65672;-76
2024/03/26 12:08:05;;;;;;;25.80;12.60;;;;;;;8.32;100.00;100116.12;106137;1251;74973;-81
2024/03/26 12:10:33;;;;;;;29.20;14.00;;;;;;;8.29;100.00;100114.34;106157;1257;69184;-76
2024/03/26 12:13:00;;;;;;;27.70;13.70;;;;;;;8.27;100.00;100115.70;106029;1251;74878;-77
2024/03/26 12:15:28;;;;;;;29.50;15.10;;;;;;;8.30;100.00;100116.36;105947;1259;62861;-81
2024/03/26 12:17:56;;;;;;;33.40;15.40;;;;;;;8.34;100.00;100115.98;105814;1260;61260;-77
2024/03/26 12:20:26;;;;;;;33.20;14.90;;;;;;;8.34;100.00;100118.68;106201;1261;74927;-82
2024/03/26 12:22:56;;;;;;;44.90;20.00;;;;;;;8.30;100.00;100120.27;105965;1251;70395;-81
2024/03/26 12:25:23;;;;;;;33.00;17.20;;;;;;;8.31;100.00;100118.63;106034;1251;74645;-78
2024/03/26 12:27:51;;;;;;;31.70;17.20;;;;;;;8.33;100.00;100124.84;106112;1251;63852;-77
2024/03/26 12:30:19;;;;;;;43.90;21.00;;;;;;;8.35;100.00;100123.91;106033;1252;61488;-77
2024/03/26 12:32:46;;;;;;;39.70;18.40;;;;;;;8.33;100.00;100128.92;105943;1254;75925;-82
2024/03/26 12:35:15;;;;;;;41.90;18.70;;;;;;;8.35;100.00;100129.73;106276;1251;70763;-81
2024/03/26 12:37:45;;;;;;;33.20;17.30;;;;;;;8.33;100.00;100133.88;106118;1256;75536;-77
2024/03/26 12:40:13;;;;;;;34.70;16.40;;;;;;;8.34;100.00;100136.81;106110;1257;63269;-81
2024/03/26 12:42:41;;;;;;;35.50;16.20;;;;;;;8.34;100.00;100137.97;105937;1257;62317;-77
2024/03/26 12:45:08;;;;;;;30.60;15.40;;;;;;;8.40;100.00;100136.18;106010;1257;75397;-77
2024/03/26 12:47:37;;;;;;;33.60;15.80;;;;;;;8.40;100.00;100136.56;105954;1257;70782;-81
2024/03/26 12:50:05;;;;;;;35.70;18.00;;;;;;;8.45;100.00;100138.70;106043;1254;73725;-81
2024/03/26 12:52:33;;;;;;;35.10;16.60;;;;;;;8.51;100.00;100141.75;106193;1257;61789;-76
2024/03/26 12:55:03;;;;;;;32.10;16.90;;;;;;;8.53;100.00;100147.57;106223;1253;62237;-81
2024/03/26 12:57:31;;;;;;;32.10;15.20;;;;;;;8.53;100.00;100147.78;105975;1254;76433;-76
2024/03/26 12:59:59;;;;;;;35.10;17.50;;;;;;;8.57;100.00;100154.98;106084;1257;69599;-76
2024/03/26 13:02:26;;;;;;;33.40;16.50;;;;;;;8.70;100.00;100157.70;105899;1254;75473;-76
2024/03/26 13:04:54;;;;;;;33.80;16.60;;;;;;;8.78;100.00;100160.74;105951;1254;62819;-81
2024/03/26 13:07:22;;;;;;;36.90;17.40;;;;;;;8.83;100.00;100160.94;105980;1253;62188;-80
2024/03/26 13:09:49;;;;;;;35.60;16.90;;;;;;;8.84;100.00;100164.65;106102;1254;76853;-76
2024/03/26 13:12:17;;;;;;;42.80;21.80;;;;;;;8.87;100.00;100171.79;106039;1254;68547;-81
2024/03/26 13:14:45;;;;;;;41.30;20.50;;;;;;;8.94;100.00;100171.62;105996;1254;74757;-82
2024/03/26 13:17:13;;;;;;;40.70;21.30;;;;;;;8.99;100.00;100172.09;105881;1259;61304;-82
2024/03/26 13:19:41;;;;;;;38.90;19.50;;;;;;;9.01;100.00;100178.04;106096;1254;61256;-77
2024/03/26 13:22:08;;;;;;;38.80;19.60;;;;;;;8.99;100.00;100176.99;106137;1252;75453;-77
2024/03/26 13:24:36;;;;;;;36.40;20.10;;;;;;;8.99;100.00;100180.05;105984;1258;70916;-81
2024/03/26 13:27:04;;;;;;;39.30;19.50;;;;;;;8.94;100.00;100184.76;105945;1257;72221;-81
2024/03/26 13:29:32;;;;;;;36.30;19.50;;;;;;;8.94;100.00;100181.86;105956;1254;63737;-77
2024/03/26 13:32:00;;;;;;;36.00;18.30;;;;;;;8.98;100.00;100184.58;106061;1253;64182;-77
2024/03/26 13:34:28;;;;;;;34.50;17.10;;;;;;;9.01;100.00;100185.44;106075;1254;76945;-80
2024/03/26 13:36:56;;;;;;;37.20;18.60;;;;;;;9.01;100.00;100187.14;106143;1258;70837;-77
2024/03/26 13:39:23;;;;;;;38.70;19.50;;;;;;;9.02;100.00;100184.29;105740;1254;295197;-81
2024/03/26 13:41:51;;;;;;;39.20;22.30;;;;;;;9.03;100.00;100183.86;106042;1257;64310;-77
2024/03/26 13:44:20;;;;;;;42.90;22.40;;;;;;;9.00;100.00;100183.97;106030;1256;61150;-81
2024/03/26 13:46:49;;;;;;;38.50;19.20;;;;;;;8.98;100.00;100187.30;106030;1253;75948;-81
2024/03/26 13:49:17;;;;;;;38.10;19.70;;;;;;;9.02;100.00;100184.52;107477;1253;69893;-77
2024/03/26 13:51:44;;;;;;;37.40;21.00;;;;;;;9.02;100.00;100190.45;108062;1256;73863;-77
2024/03/26 13:54:12;;;;;;;41.10;20.40;;;;;;;9.01;100.00;100190.84;107100;1257;61649;-77
2024/03/26 13:56:40;;;;;;;43.60;20.40;;;;;;;9.09;100.00;100193.55;106066;1254;61272;-81
2024/03/26 13:59:08;;;;;;;32.90;18.50;;;;;;;9.13;100.00;100193.21;106621;1254;76486;-78
2024/03/26 14:01:36;;;;;;;39.90;20.60;;;;;;;9.20;100.00;100195.76;106706;1254;70226;-77
2024/03/26 14:04:04;;;;;;;46.70;23.90;;;;;;;9.24;100.00;100196.95;106345;1254;73608;-77
2024/03/26 14:06:31;;;;;;;36.30;20.10;;;;;;;9.26;100.00;100193.73;106014;1253;63777;-76
2024/03/26 14:08:59;;;;;;;43.90;23.60;;;;;;;9.24;100.00;100195.54;105987;1255;61319;-81
2024/03/26 14:11:27;;;;;;;40.60;22.50;;;;;;;9.22;100.00;100201.55;106043;1253;77424;-76
2024/03/26 14:13:55;;;;;;;42.00;22.10;;;;;;;9.19;100.00;100205.30;106062;1254;70803;-77
2024/03/26 14:16:24;;;;;;;39.10;19.50;;;;;;;9.21;100.00;100206.79;106048;1254;73945;-77
2024/03/26 14:18:52;;;;;;;36.00;19.50;;;;;;;9.23;100.00;100209.50;106155;1256;61700;-81
2024/03/26 14:21:20;;;;;;;39.30;19.40;;;;;;;9.20;100.00;100210.48;106161;1254;61183;-81
2024/03/26 14:23:47;;;;;;;40.20;21.70;;;;;;;9.21;100.00;100211.90;106342;1252;76730;-76
2024/03/26 14:26:15;;;;;;;34.40;19.10;;;;;;;9.24;100.00;100213.59;106071;1254;69715;-77
2024/03/26 14:28:43;;;;;;;36.60;20.90;;;;;;;9.22;100.00;100214.35;106125;1254;72380;-81
2024/03/26 14:31:11;;;;;;;37.50;20.10;;;;;;;9.19;100.00;100216.17;105999;1257;64058;-81
2024/03/26 14:33:38;;;;;;;37.10;19.10;;;;;;;9.16;100.00;100216.39;106118;1252;61418;-82
2024/03/26 14:36:07;;;;;;;35.10;20.40;;;;;;;9.05;100.00;100219.95;105976;1260;76996;-76
2024/03/26 14:38:34;;;;;;;33.50;18.10;;;;;;;9.00;100.00;100222.79;105971;1254;72260;-81
2024/03/26 14:41:02;;;;;;;36.30;18.00;;;;;;;8.96;100.00;100224.38;105958;1254;74683;-81
2024/03/26 14:43:30;;;;;;;35.10;19.50;;;;;;;8.92;100.00;100227.90;105999;1254;63809;-77
2024/03/26 14:45:57;;;;;;;43.60;20.10;;;;;;;8.86;100.00;100231.59;106762;1254;61227;-81
2024/03/26 14:48:25;;;;;;;38.20;19.80;;;;;;;8.86;100.00;100233.09;107873;1252;74237;-78
2024/03/26 14:50:53;;;;;;;38.60;18.90;;;;;;;8.87;100.00;100238.33;107457;1253;70324;-77
2024/03/26 14:53:23;;;;;;;40.50;20.80;;;;;;;8.88;100.00;100242.09;106927;1254;72973;-81
2024/03/26 14:55:51;;;;;;;37.40;19.70;;;;;;;8.89;100.00;100243.56;108597;1253;62699;-77
2024/03/26 14:58:19;;;;;;;38.20;18.30;;;;;;;8.88;100.00;100247.33;106868;1253;61225;-81
2024/03/26 15:00:49;;;;;;;45.30;20.20;;;;;;;8.88;100.00;100246.50;106046;1254;74494;-81
2024/03/26 15:03:18;;;;;;;38.90;20.70;;;;;;;8.86;100.00;100250.26;106161;1254;71156;-81
2024/03/26 15:05:48;;;;;;;55.70;25.60;;;;;;;8.91;100.00;100251.46;106054;1254;74992;-77
2024/03/26 15:08:16;;;;;;;49.30;26.80;;;;;;;8.88;100.00;100255.11;106004;1253;62768;-81
2024/03/26 15:10:43;;;;;;;45.50;22.10;;;;;;;8.84;100.00;100255.17;105956;1253;61367;-80
2024/03/26 15:13:11;;;;;;;45.00;21.90;;;;;;;8.83;100.00;100254.67;106257;1254;75155;-76
2024/03/26 15:15:39;;;;;;;48.20;25.60;;;;;;;8.85;100.00;100257.52;105851;1253;69338;-80
2024/03/26 15:18:06;;;;;;;45.00;23.70;;;;;;;8.82;100.00;100255.65;105967;1256;72657;-76
2024/03/26 15:20:34;;;;;;;49.70;24.80;;;;;;;8.86;100.00;100256.52;105870;1259;62835;-76
2024/03/26 15:23:02;;;;;;;53.60;27.00;;;;;;;8.88;100.00;100259.48;106216;1253;61449;-76
2024/03/26 15:25:30;;;;;;;53.70;26.60;;;;;;;8.86;100.00;100266.16;106090;1254;77019;-82
2024/03/26 15:33:31;;;;;;;57.60;29.90;;;;;;;8.88;100.00;100275.98;105933;1254;62681;-76
2024/03/26 15:35:58;;;;;;;57.00;34.10;;;;;;;8.85;100.00;100276.41;106136;1254;62966;-78
2024/03/26 15:38:27;;;;;;;52.80;25.70;;;;;;;8.81;100.00;100276.75;106132;1254;74432;-75
2024/03/26 15:40:55;;;;;;;54.00;28.80;;;;;;;8.78;100.00;100280.50;106098;1254;71213;-76
2024/03/26 15:43:22;;;;;;;48.60;26.50;;;;;;;8.78;100.00;100281.39;106027;1257;74698;-81
2024/03/26 15:45:52;;;;;;;50.10;27.10;;;;;;;8.77;100.00;100281.93;106068;1254;63715;-80
2024/03/26 15:48:20;;;;;;;50.70;27.00;;;;;;;8.81;100.00;100285.48;106058;1254;62506;-81
2024/03/26 15:50:47;;;;;;;57.00;29.30;;;;;;;8.79;100.00;100294.57;106063;1254;76039;-76
2024/03/26 15:53:15;;;;;;;50.20;27.30;;;;;;;8.78;100.00;100289.88;106100;1254;69887;-76
2024/03/26 15:55:43;;;;;;;46.10;25.50;;;;;;;8.79;100.00;100293.64;105993;1255;73860;-81
2024/03/26 15:58:12;;;;;;;58.70;28.10;;;;;;;8.75;100.00;100291.95;105921;1254;63728;-77
2024/03/26 16:00:40;;;;;;;46.80;28.40;;;;;;;8.81;100.00;100296.04;105917;1253;61407;-79
2024/03/26 16:03:08;;;;;;;50.00;26.50;;;;;;;8.82;100.00;100292.77;105940;1257;76872;-76
2024/03/26 16:05:35;;;;;;;41.30;24.00;;;;;;;8.81;100.00;100296.52;106011;1257;69868;-80
2024/03/26 16:08:03;;;;;;;53.70;28.30;;;;;;;8.83;100.00;100299.90;106249;1253;73775;-76
2024/03/26 16:10:31;;;;;;;49.70;30.00;;;;;;;8.85;100.00;100308.30;106041;1253;63024;-80
2024/03/26 16:13:18;;;;;;;51.20;28.70;;;;;;;8.82;100.00;100308.68;106009;1254;61561;-80
2024/03/26 16:15:46;;;;;;;59.50;32.40;;;;;;;8.81;100.00;100310.70;106077;1254;76896;-76
2024/03/26 16:18:14;;;;;;;55.00;32.80;;;;;;;8.80;100.00;100311.52;106079;1254;70388;-80
2024/03/26 16:20:41;;;;;;;59.50;35.00;;;;;;;8.79;100.00;100310.37;106091;1258;73783;-81
2024/03/26 16:23:10;;;;;;;61.90;33.30;;;;;;;8.83;100.00;100307.91;106150;1257;61899;-80
2024/03/26 16:25:39;;;;;;;48.80;28.30;;;;;;;8.75;100.00;100312.11;106130;1257;62104;-76
2024/03/26 16:28:07;;;;;;;47.90;28.80;;;;;;;8.69;100.00;100310.89;106093;1254;76739;-76
2024/03/26 16:30:38;;;;;;;45.90;27.70;;;;;;;8.67;100.00;100311.71;107148;1253;69928;-76
2024/03/26 16:33:07;;;;;;;49.10;26.50;;;;;;;8.68;100.00;100309.15;106658;1253;74683;-81
2024/03/26 16:35:35;;;;;;;57.90;31.70;;;;;;;8.68;100.00;100314.55;106944;1254;62420;-82
2024/03/26 16:38:03;;;;;;;52.00;32.00;;;;;;;8.69;100.00;100318.14;107188;1253;61159;-80
2024/03/26 16:40:32;;;;;;;68.80;41.80;;;;;;;8.70;100.00;100323.60;107599;1254;75823;-76
2024/03/26 16:42:59;;;;;;;52.60;33.70;;;;;;;8.70;100.00;100324.95;107224;1257;70942;-77
2024/03/26 16:45:27;;;;;;;63.70;35.50;;;;;;;8.70;100.00;100327.19;106066;1254;74006;-81
2024/03/26 16:47:54;;;;;;;59.80;33.60;;;;;;;8.68;100.00;100331.59;105954;1254;64168;-77
2024/03/26 16:50:22;;;;;;;61.40;31.00;;;;;;;8.63;100.00;100339.98;105994;1254;62410;-81
2024/03/26 16:52:50;;;;;;;47.50;26.20;;;;;;;8.61;100.00;100343.47;106213;1257;75790;-82